Time;durP1;ratioP1;P1;durP2;ratioP2;P2;SDS_P1;SDS_P2;PMS_P1;PMS_P2;Temp;Humidity;BMP_temperature;BMP_pressure;BME280_temperature;BME280_humidity;BME280_pressure;Samples;Min_cycle;Max_cycle;Signal;HPM_P1;HPM_P2
2023/05/01 00:00:59;;;;;;;4.35;1.50;;;;;;;19.80;41.13;100673.81;4839827;29;20084;-88
2023/05/01 00:03:29;;;;;;;7.15;2.17;;;;;;;19.83;39.58;100665.03;4841163;29;20054;-77
2023/05/01 00:06:02;;;;;;;4.03;1.33;;;;;;;19.79;40.34;100668.56;4841007;29;20062;-81
2023/05/01 00:08:32;;;;;;;;;;;;;;;19.76;39.24;100664.22;4836627;29;20050;-78
2023/05/01 00:11:04;;;;;;;9.18;1.98;;;;;;;19.77;40.15;100667.72;4835638;29;19992;-78
2023/05/01 00:13:33;;;;;;;7.97;1.63;;;;;;;19.76;40.90;100664.22;4839395;24;20425;-76
2023/05/01 00:16:02;;;;;;;7.35;1.58;;;;;;;19.78;39.13;100656.34;4825932;29;20137;-76
2023/05/01 00:18:34;;;;;;;6.13;1.55;;;;;;;19.79;39.16;100661.59;4828829;29;20049;-79
2023/05/01 00:21:03;;;;;;;6.03;1.48;;;;;;;19.78;39.38;100653.72;4837739;29;20046;-81
2023/05/01 00:23:32;;;;;;;4.65;1.60;;;;;;;19.78;39.03;100654.56;4829526;29;20118;-80
2023/05/01 00:26:03;;;;;;;7.70;1.52;;;;;;;19.70;37.08;100656.44;4836238;29;20100;-76
2023/05/01 00:28:32;;;;;;;7.90;1.50;;;;;;;19.55;34.22;100648.66;4839240;29;20578;-80
2023/05/01 00:31:00;;;;;;;4.68;1.20;;;;;;;19.52;33.56;100646.06;4829258;29;20412;-79
2023/05/01 00:33:29;;;;;;;6.70;1.55;;;;;;;19.51;34.25;100633.81;4843330;29;20046;-75
2023/05/01 00:36:01;;;;;;;4.30;1.20;;;;;;;19.51;35.24;100633.81;4843973;29;20054;-78
2023/05/01 00:38:32;;;;;;;7.00;1.52;;;;;;;19.49;34.68;100638.19;4837147;29;20050;-76
2023/05/01 00:41:00;;;;;;;8.30;2.28;;;;;;;19.42;34.01;100637.38;4845734;29;20149;-87
2023/05/01 00:43:29;;;;;;;64.55;5.00;;;;;;;19.37;33.53;100633.94;4845966;29;20054;-78
2023/05/01 00:48:43;;;;;;;6.57;1.48;;;;;;;19.22;34.10;100627.94;5012976;24;20522;-76
2023/05/01 00:51:14;;;;;;;4.85;1.25;;;;;;;19.17;35.47;100614.00;4878013;29;20049;-76
2023/05/01 00:53:44;;;;;;;8.68;1.70;;;;;;;19.34;35.72;100629.59;4878371;29;20061;-79
2023/05/01 00:56:16;;;;;;;5.57;1.33;;;;;;;19.41;36.03;100626.03;4871468;29;20056;-78
2023/05/01 00:58:46;;;;;;;6.47;1.45;;;;;;;19.58;34.36;100632.88;4872674;29;20144;-79
2023/05/01 01:01:15;;;;;;;5.45;1.35;;;;;;;19.74;34.54;100629.22;4874690;29;20066;-79
2023/05/01 01:03:46;;;;;;;3.72;1.17;;;;;;;19.88;36.77;100626.47;4867508;29;20133;-80
2023/05/01 01:06:30;;;;;;;7.28;1.30;;;;;;;20.01;36.52;100632.47;4870215;29;20057;-78
2023/05/01 01:09:14;;;;;;;5.63;2.00;;;;;;;20.01;36.09;100627.22;4871131;29;20064;-80
2023/05/01 01:11:54;;;;;;;7.30;1.90;;;;;;;20.02;34.37;100629.81;4858094;29;20133;-78
2023/05/01 01:14:28;;;;;;;9.35;1.95;;;;;;;19.87;33.92;100627.38;4862936;29;20049;-77
2023/05/01 01:17:02;;;;;;;6.72;1.50;;;;;;;19.81;33.26;100633.56;4875100;29;20049;-79
2023/05/01 01:20:05;;;;;;;13.82;4.85;;;;;;;19.78;33.22;100633.56;4877794;29;20067;-81
2023/05/01 01:22:38;;;;;;;5.93;1.30;;;;;;;19.70;32.16;100631.91;4875284;29;21193;-84
2023/05/01 01:25:37;;;;;;;8.68;1.50;;;;;;;19.63;32.24;100620.56;4868987;29;20064;-80
2023/05/01 01:28:35;;;;;;;6.95;1.55;;;;;;;19.76;33.96;100622.22;4873191;29;20093;-78
2023/05/01 01:31:14;;;;;;;10.18;2.33;;;;;;;19.81;33.90;100619.53;4867801;29;20593;-79
2023/05/01 01:34:00;;;;;;;4.75;1.40;;;;;;;19.84;34.36;100616.91;4872551;29;20049;-84
2023/05/01 01:36:39;;;;;;;7.45;1.85;;;;;;;19.86;33.21;100623.88;4872922;29;20509;-84
2023/05/01 01:39:15;;;;;;;9.65;2.05;;;;;;;19.85;34.05;100622.13;4872433;29;20795;-79
2023/05/01 01:41:50;;;;;;;5.05;1.40;;;;;;;19.83;33.57;100629.13;4874155;29;20110;-76
2023/05/01 01:44:24;;;;;;;4.68;1.23;;;;;;;19.79;33.07;100623.94;4869494;29;20140;-78
2023/05/01 01:46:55;;;;;;;5.13;1.20;;;;;;;19.73;33.77;100627.50;4865125;29;20061;-75
2023/05/01 01:49:28;;;;;;;5.53;1.20;;;;;;;19.69;33.99;100625.78;4869433;29;20057;-79
2023/05/01 01:51:59;;;;;;;5.10;1.30;;;;;;;19.66;35.12;100631.06;4873195;29;20061;-78
2023/05/01 01:54:33;;;;;;;5.03;1.33;;;;;;;19.67;35.07;100627.53;4873599;29;20560;-77
2023/05/01 01:57:04;;;;;;;4.07;1.13;;;;;;;19.67;34.34;100623.13;4866336;29;20563;-76
2023/05/01 01:59:35;;;;;;;4.03;1.40;;;;;;;19.67;34.52;100627.53;4864816;29;20405;-77
2023/05/01 02:02:04;;;;;;;6.15;1.40;;;;;;;19.64;34.41;100628.44;4870739;29;20049;-81
2023/05/01 02:04:37;;;;;;;4.07;0.93;;;;;;;19.57;34.58;100628.50;4870560;29;20053;-79
2023/05/01 02:07:05;;;;;;;;;;;;;;;19.46;34.54;100629.47;4869501;29;20060;-77
2023/05/01 02:09:36;;;;;;;3.83;0.82;;;;;;;19.32;35.25;100626.09;4871996;29;19927;-78
2023/05/01 02:12:07;;;;;;;5.47;1.30;;;;;;;19.15;35.18;100628.88;4871962;29;20102;-77
2023/05/01 02:14:37;;;;;;;3.30;1.05;;;;;;;19.00;35.66;100629.84;4869958;29;20045;-77
2023/05/01 02:17:07;;;;;;;4.22;0.80;;;;;;;18.83;35.55;100634.34;4866995;29;20056;-77
2023/05/01 02:19:40;;;;;;;4.22;0.88;;;;;;;18.67;35.87;100632.66;4870237;29;20053;-77
2023/05/01 02:22:11;;;;;;;4.88;1.08;;;;;;;18.52;36.73;100633.63;4873439;29;20088;-78
2023/05/01 02:24:54;;;;;;;4.00;1.20;;;;;;;18.40;36.25;100637.16;4871394;29;20542;-77
2023/05/01 02:27:32;;;;;;;6.75;1.10;;;;;;;18.26;37.33;100634.63;4868109;29;20712;-78
2023/05/01 02:30:01;;;;;;;4.45;1.10;;;;;;;18.13;37.97;100639.00;4861693;29;20072;-76
2023/05/01 02:32:31;;;;;;;3.65;0.75;;;;;;;17.92;38.48;100626.00;4874609;29;20057;-76
2023/05/01 02:35:01;;;;;;;1.33;0.63;;;;;;;17.91;38.90;100639.94;4862974;29;20781;-82
2023/05/01 02:37:30;;;;;;;1.65;0.47;;;;;;;17.85;37.98;100642.59;4856901;29;21006;-76
2023/05/01 02:39:59;;;;;;;6.75;0.77;;;;;;;17.77;38.80;100645.19;4863221;29;20049;-75
2023/05/01 02:42:30;;;;;;;4.13;1.23;;;;;;;17.69;38.95;100639.97;4866029;29;20055;-76
2023/05/01 02:45:02;;;;;;;3.33;0.60;;;;;;;17.59;39.21;100631.25;4866618;29;20052;-76
2023/05/01 02:47:33;;;;;;;5.72;1.02;;;;;;;17.49;39.32;100629.50;4868527;29;20064;-76
2023/05/01 02:50:03;;;;;;;6.22;0.80;;;;;;;17.42;39.93;100637.38;4868923;29;20458;-76
2023/05/01 02:52:32;;;;;;;3.40;0.60;;;;;;;17.37;40.39;100634.78;4870778;29;20062;-76
2023/05/01 02:55:02;;;;;;;5.38;0.90;;;;;;;17.29;40.39;100629.50;4870120;29;20126;-76
2023/05/01 02:57:33;;;;;;;3.85;0.85;;;;;;;17.24;40.74;100633.88;4857752;29;20747;-80
2023/05/01 03:00:02;;;;;;;8.35;0.90;;;;;;;17.17;40.73;100637.38;4869930;29;20057;-77
2023/05/01 03:02:30;;;;;;;5.55;0.90;;;;;;;17.07;41.73;100636.50;4870426;29;20057;-76
2023/05/01 03:04:59;;;;;;;6.18;1.15;;;;;;;16.95;41.60;100637.38;4859779;29;20057;-77
2023/05/01 03:07:33;;;;;;;2.75;0.75;;;;;;;16.88;42.10;100640.84;4867704;29;20064;-75
2023/05/01 03:10:03;;;;;;;3.92;0.90;;;;;;;16.82;42.29;100639.94;4863710;29;20061;-76
2023/05/01 03:12:32;;;;;;;2.72;1.45;;;;;;;16.75;41.67;100642.50;4863693;29;20104;-77
2023/05/01 03:15:00;;;;;;;4.13;0.85;;;;;;;16.70;43.02;100643.38;4869677;29;20120;-75
2023/05/01 03:17:29;;;;;;;3.42;1.00;;;;;;;16.64;42.31;100648.56;4864726;29;20060;-76
2023/05/01 03:19:58;;;;;;;3.67;0.90;;;;;;;16.59;42.36;100653.78;4867017;29;20060;-75
2023/05/01 03:22:32;;;;;;;4.97;1.17;;;;;;;16.52;42.20;100657.25;4857642;29;20137;-75
2023/05/01 03:25:01;;;;;;;2.63;1.00;;;;;;;16.47;42.91;100658.94;4863182;29;20048;-76
2023/05/01 03:27:29;;;;;;;3.95;0.50;;;;;;;16.42;43.11;100660.69;4864403;29;20159;-75
2023/05/01 03:29:58;;;;;;;5.78;0.85;;;;;;;16.38;43.71;100662.41;4866946;29;20048;-75
2023/05/01 03:32:28;;;;;;;3.97;0.75;;;;;;;16.29;42.95;100644.09;4867279;29;20045;-75
2023/05/01 03:34:56;;;;;;;3.22;0.70;;;;;;;16.33;43.17;100662.41;4858691;29;20068;-76
2023/05/01 03:37:25;;;;;;;5.07;0.65;;;;;;;16.29;43.55;100665.00;4870011;29;20060;-75
2023/05/01 03:39:55;;;;;;;1.98;0.93;;;;;;;16.24;44.06;100667.59;4867812;29;20053;-76
2023/05/01 03:42:24;;;;;;;3.53;1.25;;;;;;;16.22;43.44;100673.66;4871886;29;20052;-73
2023/05/01 03:44:53;;;;;;;2.30;0.50;;;;;;;16.19;43.90;100671.03;4867370;29;20049;-74
2023/05/01 03:47:21;;;;;;;6.50;0.90;;;;;;;16.13;44.33;100674.47;4864067;29;20061;-75
2023/05/01 03:49:50;;;;;;;3.92;0.85;;;;;;;16.10;44.50;100670.13;4863985;29;20061;-74
2023/05/01 03:52:18;;;;;;;3.28;0.52;;;;;;;16.05;44.24;100666.59;4867176;29;20065;-75
2023/05/01 03:54:48;;;;;;;1.70;0.63;;;;;;;16.01;45.16;100675.28;4867623;29;20056;-77
2023/05/01 03:57:19;;;;;;;3.63;0.77;;;;;;;15.97;44.83;100683.97;4857280;29;20090;-77
2023/05/01 03:59:48;;;;;;;3.10;1.30;;;;;;;15.96;44.82;100682.19;4869212;29;20060;-77
2023/05/01 04:02:16;;;;;;;2.85;0.82;;;;;;;15.93;44.92;100678.72;4870064;29;20396;-77
2023/05/01 04:04:45;;;;;;;3.88;0.85;;;;;;;15.90;45.25;100674.34;4868958;29;20049;-77
2023/05/01 04:07:14;;;;;;;5.85;0.70;;;;;;;15.87;45.95;100679.53;4868811;29;20049;-77
2023/05/01 04:09:43;;;;;;;4.68;1.00;;;;;;;15.84;45.77;100683.00;4872473;29;20515;-77
2023/05/01 04:12:12;;;;;;;3.80;0.80;;;;;;;15.80;45.89;100680.34;4870665;29;20131;-77
2023/05/01 04:14:43;;;;;;;7.25;0.80;;;;;;;15.78;45.16;100682.97;4873581;29;20044;-77
2023/05/01 04:17:12;;;;;;;2.95;0.63;;;;;;;15.73;46.33;100681.19;4877080;29;20053;-78
2023/05/01 04:19:40;;;;;;;5.32;0.70;;;;;;;15.66;46.53;100680.22;4868314;29;20049;-77
2023/05/01 04:22:09;;;;;;;2.38;0.68;;;;;;;15.60;46.29;100683.66;4876496;29;20049;-77
2023/05/01 04:24:37;;;;;;;3.78;0.85;;;;;;;15.56;47.05;100687.13;4872154;29;20094;-77
2023/05/01 04:27:06;;;;;;;2.15;0.50;;;;;;;15.53;46.86;100687.09;4868149;29;20061;-77
2023/05/01 04:29:35;;;;;;;7.47;0.70;;;;;;;15.50;46.94;100681.84;4872595;29;20045;-78
2023/05/01 04:32:05;;;;;;;4.28;0.68;;;;;;;15.46;47.11;100680.06;4870277;29;20041;-77
2023/05/01 04:34:34;;;;;;;1.55;0.55;;;;;;;15.43;47.67;100680.91;4870052;29;20060;-78
2023/05/01 04:37:02;;;;;;;2.10;0.55;;;;;;;15.39;47.05;100680.88;4870185;29;20520;-76
2023/05/01 04:39:31;;;;;;;4.57;0.60;;;;;;;15.33;47.46;100680.84;4876107;29;20053;-77
2023/05/01 04:42:01;;;;;;;3.05;0.73;;;;;;;15.26;47.86;100688.59;4875532;29;20061;-76
2023/05/01 04:44:29;;;;;;;3.20;0.63;;;;;;;15.18;47.83;100678.94;4870209;29;20144;-75
2023/05/01 04:46:58;;;;;;;2.45;0.82;;;;;;;15.15;48.54;100698.03;4871888;29;20057;-76
2023/05/01 04:49:28;;;;;;;2.95;0.90;;;;;;;15.10;48.46;100697.13;4869333;29;20064;-76
2023/05/01 04:51:57;;;;;;;2.53;0.73;;;;;;;15.03;48.38;100700.53;4872364;29;20053;-75
2023/05/01 04:54:26;;;;;;;3.30;0.95;;;;;;;14.95;48.76;100702.16;4871391;29;20052;-76
2023/05/01 04:56:55;;;;;;;2.75;0.50;;;;;;;14.90;48.35;100702.13;4871908;29;20188;-76
2023/05/01 04:59:23;;;;;;;4.35;0.80;;;;;;;14.85;48.97;100702.06;4871848;29;20053;-76
2023/05/01 05:01:52;;;;;;;3.13;0.93;;;;;;;14.82;49.29;100702.06;4873419;29;20073;-75
2023/05/01 05:04:21;;;;;;;2.90;1.00;;;;;;;14.79;49.55;100707.19;4866349;29;20049;-76
2023/05/01 05:06:51;;;;;;;6.28;1.27;;;;;;;14.78;49.49;100705.47;4869702;29;20049;-75
2023/05/01 05:09:19;;;;;;;7.40;1.15;;;;;;;14.78;49.46;100705.47;4872594;29;20622;-76
2023/05/01 05:11:48;;;;;;;4.88;1.08;;;;;;;14.79;49.78;100706.34;4870304;29;20104;-76
2023/05/01 05:14:17;;;;;;;4.03;1.00;;;;;;;14.76;50.01;100704.56;4872235;29;20057;-76
2023/05/01 05:16:45;;;;;;;2.95;0.93;;;;;;;14.75;50.09;100699.34;4870223;29;20756;-76
2023/05/01 05:19:14;;;;;;;4.70;1.75;;;;;;;14.72;49.93;100710.59;4873045;29;20051;-75
2023/05/01 05:21:42;;;;;;;1.67;0.60;;;;;;;14.70;50.00;100707.09;4865634;29;20548;-76
2023/05/01 05:24:13;;;;;;;2.45;0.70;;;;;;;14.69;50.55;100705.38;4873354;29;20056;-76
2023/05/01 05:26:41;;;;;;;3.03;0.95;;;;;;;14.65;50.31;100708.78;4870061;29;20203;-74
2023/05/01 05:29:10;;;;;;;6.68;0.98;;;;;;;14.61;49.87;100707.00;4869966;29;20112;-75
2023/05/01 05:31:38;;;;;;;3.50;0.60;;;;;;;14.55;50.14;100704.34;4868797;29;20097;-76
2023/05/01 05:34:07;;;;;;;3.30;0.90;;;;;;;14.53;50.76;100703.41;4870656;29;20527;-76
2023/05/01 05:36:36;;;;;;;0.80;0.47;;;;;;;14.51;50.49;100707.72;4866737;29;20049;-75
2023/05/01 05:39:05;;;;;;;1.33;0.43;;;;;;;14.51;50.16;100705.09;4868070;29;20083;-76
2023/05/01 05:41:35;;;;;;;1.85;0.50;;;;;;;14.51;50.58;100697.31;4868657;29;20076;-76
2023/05/01 05:44:04;;;;;;;3.95;0.60;;;;;;;14.46;50.28;100698.09;4869081;29;20057;-75
2023/05/01 05:46:32;;;;;;;2.95;0.57;;;;;;;14.47;50.53;100693.75;4868731;29;20064;-76
2023/05/01 05:49:01;;;;;;;1.10;0.70;;;;;;;14.41;50.69;100699.78;4868809;29;20087;-77
2023/05/01 05:51:29;;;;;;;1.65;0.65;;;;;;;14.37;50.90;100699.72;4874245;29;20124;-77
2023/05/01 05:53:58;;;;;;;1.85;0.60;;;;;;;14.33;50.15;100696.19;4866505;29;20057;-78
2023/05/01 05:56:27;;;;;;;2.25;0.50;;;;;;;14.32;50.57;100693.59;4868345;29;20520;-78
2023/05/01 05:58:57;;;;;;;1.67;0.63;;;;;;;14.32;51.09;100701.41;4871958;29;20052;-77
2023/05/01 06:01:26;;;;;;;3.60;0.68;;;;;;;14.29;52.66;100699.59;4862835;29;20648;-78
2023/05/01 06:03:54;;;;;;;1.83;0.43;;;;;;;14.21;53.69;100701.25;4867326;29;20132;-78
2023/05/01 06:06:23;;;;;;;0.68;0.30;;;;;;;14.19;53.93;100701.22;4869848;29;20057;-78
2023/05/01 06:08:51;;;;;;;4.28;0.65;;;;;;;14.15;54.22;100701.16;4872902;29;20068;-78
2023/05/01 06:11:20;;;;;;;4.22;0.73;;;;;;;14.09;54.53;100698.44;4869532;29;20053;-77
2023/05/01 06:13:49;;;;;;;3.17;0.50;;;;;;;14.02;54.73;100695.78;4863456;29;20061;-77
2023/05/01 06:16:19;;;;;;;2.35;0.50;;;;;;;13.96;54.55;100700.03;4863315;29;20057;-77
2023/05/01 06:18:48;;;;;;;4.55;0.80;;;;;;;13.91;54.74;100699.94;4865827;29;20053;-76
2023/05/01 06:21:17;;;;;;;1.75;0.50;;;;;;;13.90;54.76;100695.59;4870226;29;20582;-77
2023/05/01 06:23:45;;;;;;;2.90;0.75;;;;;;;13.89;55.42;100700.78;4865734;29;20179;-77
2023/05/01 06:26:14;;;;;;;10.73;1.55;;;;;;;13.88;55.60;100697.31;4870759;29;20049;-77
2023/05/01 06:28:42;;;;;;;3.63;0.70;;;;;;;13.86;55.96;100698.13;4867188;29;20304;-77
2023/05/01 06:31:11;;;;;;;5.30;1.00;;;;;;;13.77;56.26;100689.34;4866294;29;20060;-77
2023/05/01 06:33:41;;;;;;;8.18;0.82;;;;;;;13.67;56.52;100697.84;4873015;29;20132;-77
2023/05/01 06:36:10;;;;;;;2.55;0.85;;;;;;;13.61;56.56;100688.22;4871722;29;20567;-77
2023/05/01 06:38:40;;;;;;;2.03;0.85;;;;;;;13.60;57.39;100691.66;4871733;29;20057;-77
2023/05/01 06:41:08;;;;;;;1.70;0.60;;;;;;;13.58;57.49;100693.38;4869926;29;20053;-77
2023/05/01 06:43:37;;;;;;;3.03;0.55;;;;;;;13.56;57.99;100694.19;4870483;29;20053;-77
2023/05/01 06:46:06;;;;;;;5.20;0.98;;;;;;;13.52;58.26;100695.88;4872360;29;20049;-77
2023/05/01 06:48:34;;;;;;;5.43;0.85;;;;;;;13.52;58.18;100687.22;4876064;29;20064;-77
2023/05/01 06:51:05;;;;;;;3.20;0.63;;;;;;;13.49;59.84;100688.03;4869858;29;20532;-78
2023/05/01 06:53:33;;;;;;;1.48;0.50;;;;;;;13.46;59.22;100680.16;4870620;29;20068;-76
2023/05/01 06:56:02;;;;;;;3.33;0.85;;;;;;;13.44;58.45;100689.66;4871303;29;20053;-78
2023/05/01 06:58:30;;;;;;;4.38;1.05;;;;;;;13.41;58.56;100687.03;4866270;29;20533;-76
2023/05/01 07:00:59;;;;;;;3.50;0.65;;;;;;;13.34;59.56;100679.97;4866875;29;20064;-77
2023/05/01 07:03:28;;;;;;;1.77;0.60;;;;;;;13.29;59.90;100684.22;4865621;29;20053;-77
2023/05/01 07:05:56;;;;;;;1.67;0.57;;;;;;;13.21;62.34;100695.31;4874518;29;20049;-77
2023/05/01 07:08:27;;;;;;;5.75;1.13;;;;;;;13.13;63.82;100686.50;4871963;29;20396;-77
2023/05/01 07:10:55;;;;;;;2.55;1.20;;;;;;;13.07;62.52;100688.13;4871889;29;20062;-75
2023/05/01 07:13:24;;;;;;;2.17;0.75;;;;;;;12.94;61.37;100694.81;4869483;29;20678;-76
2023/05/01 07:15:53;;;;;;;2.97;0.57;;;;;;;12.91;61.99;100692.16;4869555;29;20057;-76
2023/05/01 07:18:21;;;;;;;3.85;0.73;;;;;;;12.88;62.26;100689.50;4872810;29;20089;-77
2023/05/01 07:20:51;;;;;;;1.00;0.40;;;;;;;12.85;62.10;100686.84;4870484;29;20056;-76
2023/05/01 07:23:22;;;;;;;5.90;0.75;;;;;;;12.83;62.11;100685.94;4869814;29;20061;-76
2023/05/01 07:25:53;;;;;;;7.15;0.93;;;;;;;12.81;63.30;100687.66;4873333;29;20067;-76
2023/05/01 07:28:21;;;;;;;3.25;0.95;;;;;;;12.77;62.42;100684.97;4865832;29;20057;-76
2023/05/01 07:30:50;;;;;;;3.25;0.52;;;;;;;12.74;63.27;100684.91;4864919;29;20070;-76
2023/05/01 07:33:18;;;;;;;0.80;0.40;;;;;;;12.75;63.72;100685.78;4866508;29;20052;-76
2023/05/01 07:35:47;;;;;;;6.32;0.95;;;;;;;12.74;62.92;100689.25;4875990;29;20053;-77
2023/05/01 07:38:17;;;;;;;1.88;0.60;;;;;;;12.71;64.41;100679.69;4868302;29;20080;-76
2023/05/01 07:40:46;;;;;;;3.25;0.65;;;;;;;12.71;64.24;100684.88;4872064;29;20049;-77
2023/05/01 07:43:16;;;;;;;3.55;0.60;;;;;;;12.68;64.87;100679.59;4873786;29;20053;-76
2023/05/01 07:45:56;;;;;;;2.05;0.50;;;;;;;12.66;65.76;100670.91;4872883;29;20060;-75
2023/05/01 07:48:25;;;;;;;5.35;1.10;;;;;;;12.63;65.28;100670.84;4876532;29;20061;-76
2023/05/01 07:50:55;;;;;;;2.83;0.50;;;;;;;12.63;64.94;100681.25;4876167;29;20060;-76
2023/05/01 07:53:24;;;;;;;3.08;0.40;;;;;;;12.64;64.73;100682.09;4860661;29;20056;-76
2023/05/01 07:55:52;;;;;;;2.25;0.63;;;;;;;12.66;64.39;100677.81;4869836;29;20243;-76
2023/05/01 07:58:23;;;;;;;1.25;0.73;;;;;;;12.68;64.95;100679.59;4874080;29;20064;-76
2023/05/01 08:00:51;;;;;;;4.95;0.80;;;;;;;12.71;64.45;100674.50;4873449;29;20105;-76
2023/05/01 08:03:20;;;;;;;6.38;1.15;;;;;;;12.75;64.16;100675.41;4874397;29;20049;-77
2023/05/01 08:05:49;;;;;;;1.65;0.45;;;;;;;12.78;64.59;100678.03;4869677;29;20065;-76
2023/05/01 08:08:19;;;;;;;4.22;0.70;;;;;;;12.79;64.69;100672.03;4868718;29;20050;-77
2023/05/01 08:10:48;;;;;;;5.30;0.90;;;;;;;12.80;64.88;100665.97;4874381;29;20503;-76
2023/05/01 08:13:17;;;;;;;6.03;0.73;;;;;;;12.77;64.99;100669.41;4871228;29;20460;-77
2023/05/01 08:15:48;;;;;;;7.80;1.15;;;;;;;12.71;65.62;100666.69;4873399;29;20076;-75
2023/05/01 08:18:19;;;;;;;1.90;0.50;;;;;;;12.66;65.54;100670.91;4872164;29;20053;-76
2023/05/01 08:20:48;;;;;;;3.00;0.60;;;;;;;12.64;65.86;100662.22;4876805;29;20160;-77
2023/05/01 08:23:17;;;;;;;4.18;0.98;;;;;;;12.63;66.01;100664.78;4872647;29;20118;-77
2023/05/01 08:25:49;;;;;;;3.17;0.50;;;;;;;12.59;66.24;100666.44;4874230;29;20056;-76
2023/05/01 08:28:19;;;;;;;4.10;1.10;;;;;;;12.60;67.11;100670.81;4875244;29;20045;-76
2023/05/01 08:30:49;;;;;;;1.77;0.57;;;;;;;12.60;67.04;100665.63;4865113;29;20065;-77
2023/05/01 08:33:18;;;;;;;3.10;0.52;;;;;;;12.57;67.66;100660.34;4870252;29;20127;-76
2023/05/01 08:35:47;;;;;;;0.95;0.47;;;;;;;12.52;68.20;100652.47;4868145;29;20547;-75
2023/05/01 08:38:16;;;;;;;1.98;0.82;;;;;;;12.49;69.44;100657.59;4874004;29;20053;-77
2023/05/01 08:40:50;;;;;;;6.68;1.00;;;;;;;12.41;69.39;100658.28;4867871;29;20211;-76
2023/05/01 08:43:18;;;;;;;0.95;0.60;;;;;;;12.35;68.96;100653.88;4875423;29;20061;-77
2023/05/01 08:45:50;;;;;;;2.05;0.60;;;;;;;12.31;69.72;100646.84;4872892;29;20052;-76
2023/05/01 08:48:19;;;;;;;5.60;0.90;;;;;;;12.24;70.24;100647.56;4865499;29;20061;-77
2023/05/01 08:50:52;;;;;;;1.85;1.00;;;;;;;12.20;71.33;100648.34;4873722;29;20048;-77
2023/05/01 08:53:23;;;;;;;3.30;0.65;;;;;;;12.16;71.37;100647.38;4868108;29;20053;-77
2023/05/01 08:55:52;;;;;;;2.50;0.68;;;;;;;12.14;71.82;100644.78;4875322;29;20136;-76
2023/05/01 08:58:25;;;;;;;2.40;0.57;;;;;;;12.15;72.58;100650.84;4866839;29;20133;-76
2023/05/01 09:00:57;;;;;;;3.92;0.98;;;;;;;12.11;72.92;100639.50;4871384;29;20061;-77
2023/05/01 09:03:28;;;;;;;1.98;0.75;;;;;;;12.10;73.51;100636.91;4876008;29;20077;-76
2023/05/01 09:05:58;;;;;;;1.75;0.70;;;;;;;12.13;73.49;100637.81;4874709;29;20049;-77
2023/05/01 09:08:26;;;;;;;3.72;0.80;;;;;;;12.15;72.36;100635.28;4870958;29;20052;-76
2023/05/01 09:10:58;;;;;;;1.55;0.57;;;;;;;12.15;73.42;100633.56;4870653;29;20048;-77
2023/05/01 09:13:27;;;;;;;3.07;0.90;;;;;;;12.14;73.55;100633.53;4873033;29;20076;-77
2023/05/01 09:15:57;;;;;;;3.55;0.50;;;;;;;12.13;73.47;100632.63;4866785;29;20056;-75
2023/05/01 09:18:25;;;;;;;2.40;0.57;;;;;;;12.12;74.27;100625.72;4872012;29;20057;-76
2023/05/01 09:20:55;;;;;;;4.40;0.77;;;;;;;12.11;73.41;100630.88;4870052;29;20052;-76
2023/05/01 09:23:24;;;;;;;2.53;0.50;;;;;;;12.10;74.40;100626.53;4866945;29;20113;-76
2023/05/01 09:25:53;;;;;;;6.25;0.70;;;;;;;12.10;74.04;100626.53;4873010;29;20785;-76
2023/05/01 09:28:42;;;;;;;1.65;0.75;;;;;;;12.09;74.13;100620.44;4872069;29;20056;-76
2023/05/01 09:31:27;;;;;;;3.22;0.47;;;;;;;12.11;74.15;100628.25;4868081;29;20091;-77
2023/05/01 09:33:57;;;;;;;1.63;0.40;;;;;;;12.08;72.85;100623.03;4868971;29;20063;-76
2023/05/01 09:36:26;;;;;;;1.05;0.50;;;;;;;12.07;74.02;100621.25;4877868;29;20053;-76
2023/05/01 09:38:55;;;;;;;1.27;0.45;;;;;;;12.09;74.23;100623.03;4875229;29;20053;-76
2023/05/01 09:41:25;;;;;;;1.33;0.47;;;;;;;12.13;73.88;100617.06;4875610;29;20059;-76
2023/05/01 09:43:55;;;;;;;1.48;0.82;;;;;;;12.17;74.17;100612.84;4874615;29;20109;-75
2023/05/01 09:46:26;;;;;;;3.75;0.60;;;;;;;12.21;74.01;100619.84;4867666;29;20057;-76
2023/05/01 09:48:57;;;;;;;1.75;0.50;;;;;;;12.23;73.51;100618.16;4877964;29;20048;-76
2023/05/01 09:51:27;;;;;;;4.40;0.80;;;;;;;12.23;72.69;100618.16;4867250;29;20057;-76
2023/05/01 09:53:57;;;;;;;2.33;0.52;;;;;;;12.23;72.34;100625.94;4872364;29;20045;-76
2023/05/01 09:56:27;;;;;;;0.82;0.45;;;;;;;12.26;73.32;100623.41;4863947;29;20060;-76
2023/05/01 09:58:58;;;;;;;1.40;0.60;;;;;;;12.27;72.86;100625.16;4870068;29;20052;-76
2023/05/01 10:01:42;;;;;;;2.60;0.60;;;;;;;12.27;72.78;100630.34;4873920;29;20068;-76
2023/05/01 10:04:10;;;;;;;1.52;0.50;;;;;;;12.30;72.70;100619.13;4874891;29;20048;-77
2023/05/01 10:06:40;;;;;;;3.70;0.55;;;;;;;12.32;72.74;100613.16;4874648;29;20076;-77
2023/05/01 10:09:15;;;;;;;3.78;0.63;;;;;;;12.33;73.32;100616.63;4871509;29;20049;-77
2023/05/01 10:11:52;;;;;;;1.10;0.40;;;;;;;12.33;72.85;100620.09;4875060;29;20056;-76
2023/05/01 10:14:22;;;;;;;0.40;0.20;;;;;;;12.32;73.48;100617.44;4871743;29;20132;-76
2023/05/01 10:16:53;;;;;;;0.40;0.20;;;;;;;12.21;72.32;100608.56;4867085;29;20263;-77
2023/05/01 10:19:21;;;;;;;0.70;0.50;;;;;;;12.30;73.42;100616.53;4873855;29;20175;-77
2023/05/01 10:21:51;;;;;;;2.53;0.60;;;;;;;12.30;72.65;100624.31;4867637;29;20176;-77
2023/05/01 10:24:20;;;;;;;0.52;0.43;;;;;;;12.30;73.02;100609.66;4872617;29;20057;-77
2023/05/01 10:26:50;;;;;;;0.70;0.40;;;;;;;12.32;72.71;100613.16;4872112;29;20049;-78
2023/05/01 10:29:22;;;;;;;3.17;0.90;;;;;;;12.33;73.25;100614.03;4863038;29;20129;-77
2023/05/01 10:31:52;;;;;;;0.98;0.40;;;;;;;12.34;73.38;100610.59;4865677;29;20044;-77
2023/05/01 10:34:22;;;;;;;1.05;0.40;;;;;;;12.35;72.96;100602.84;4872455;29;20049;-77
2023/05/01 10:36:58;;;;;;;2.53;0.20;;;;;;;12.33;72.93;100609.72;4867882;29;20053;-77
2023/05/01 10:39:34;;;;;;;8.70;0.82;;;;;;;12.32;73.12;100607.97;4865708;29;20487;-77
2023/05/01 10:42:09;;;;;;;3.60;0.40;;;;;;;12.31;73.24;100605.34;4873106;29;20041;-77
2023/05/01 10:44:38;;;;;;;2.20;0.60;;;;;;;12.29;72.60;100607.91;4875102;29;20077;-77
2023/05/01 10:47:43;;;;;;;7.35;0.82;;;;;;;12.27;72.86;100606.13;4874536;29;20407;-77
2023/05/01 10:50:14;;;;;;;0.55;0.30;;;;;;;12.22;73.41;100600.84;4868463;29;20073;-75
2023/05/01 10:53:19;;;;;;;5.97;1.13;;;;;;;12.20;74.09;100599.94;4863746;29;20133;-76
2023/05/01 10:55:49;;;;;;;3.22;0.80;;;;;;;12.17;74.69;100592.09;4863011;29;20048;-76
2023/05/01 10:58:50;;;;;;;1.33;0.30;;;;;;;12.14;74.55;100592.91;4867292;29;20049;-77
2023/05/01 11:01:34;;;;;;;2.58;0.40;;;;;;;12.16;74.31;100587.72;4853908;29;20671;-76
2023/05/01 11:04:06;;;;;;;0.93;0.60;;;;;;;12.14;74.81;100587.72;4864156;29;20071;-76
2023/05/01 11:06:38;;;;;;;6.75;0.82;;;;;;;12.11;75.07;100587.63;4865792;29;20041;-76
2023/05/01 11:09:37;;;;;;;3.03;0.57;;;;;;;12.10;73.89;100591.09;4868497;29;20085;-76
2023/05/01 11:12:06;;;;;;;0.98;0.40;;;;;;;12.09;74.43;100589.31;4862312;29;20080;-76
2023/05/01 11:15:06;;;;;;;5.47;0.40;;;;;;;12.08;74.64;100582.41;4862867;29;20084;-76
2023/05/01 11:17:48;;;;;;;2.60;0.50;;;;;;;12.07;74.24;100584.94;4873708;29;20056;-76
2023/05/01 11:20:48;;;;;;;1.30;0.30;;;;;;;12.04;74.37;100590.09;4872485;29;20144;-76
2023/05/01 11:23:22;;;;;;;2.40;0.38;;;;;;;11.98;75.62;100590.84;4866895;29;20061;-76
2023/05/01 11:25:51;;;;;;;2.67;0.50;;;;;;;11.98;76.12;100584.75;4868427;29;20049;-77
2023/05/01 11:28:23;;;;;;;2.92;1.25;;;;;;;11.98;76.13;100582.16;4869637;29;20064;-76
2023/05/01 11:30:51;;;;;;;0.90;0.30;;;;;;;11.90;77.99;100584.59;4869449;29;20061;-76
2023/05/01 11:33:27;;;;;;;1.20;0.55;;;;;;;11.82;77.62;100576.66;4869672;29;20057;-76
2023/05/01 11:36:03;;;;;;;2.10;0.43;;;;;;;11.80;77.49;100575.72;4873734;29;20793;-75
2023/05/01 11:38:33;;;;;;;1.75;0.60;;;;;;;11.78;77.58;100572.22;4873961;29;20144;-76
2023/05/01 11:41:04;;;;;;;1.10;0.35;;;;;;;11.73;78.35;100568.66;4871662;29;20118;-75
2023/05/01 11:43:33;;;;;;;2.10;0.40;;;;;;;11.66;80.31;100566.75;4870100;29;20057;-76
2023/05/01 11:46:04;;;;;;;1.88;0.50;;;;;;;11.62;80.81;100565.84;4870352;29;20275;-76
2023/05/01 11:48:33;;;;;;;1.35;0.30;;;;;;;11.60;80.49;100567.50;4872925;29;20054;-76